sensor_id;sensor_type;location;lat;lon;timestamp;P1;durP1;ratioP1;P2;durP2;ratioP2
79363;SDS011;68832;53.112;17.980;2023-05-20T00:01:41;4.20;;;2.40;;
79363;SDS011;68832;53.112;17.980;2023-05-20T00:04:08;4.50;;;2.50;;
79363;SDS011;68832;53.112;17.980;2023-05-20T00:06:35;4.80;;;2.70;;
79363;SDS011;68832;53.112;17.980;2023-05-20T00:09:02;3.90;;;2.10;;
79363;SDS011;68832;53.112;17.980;2023-05-20T00:11:29;6.30;;;3.50;;
79363;SDS011;68832;53.112;17.980;2023-05-20T00:13:57;5.40;;;2.80;;
79363;SDS011;68832;53.112;17.980;2023-05-20T00:16:23;4.30;;;2.40;;
79363;SDS011;68832;53.112;17.980;2023-05-20T00:18:50;4.70;;;2.70;;
79363;SDS011;68832;53.112;17.980;2023-05-20T00:21:17;4.60;;;2.60;;
79363;SDS011;68832;53.112;17.980;2023-05-20T00:23:44;4.30;;;2.40;;
79363;SDS011;68832;53.112;17.980;2023-05-20T00:26:11;4.10;;;2.20;;
79363;SDS011;68832;53.112;17.980;2023-05-20T00:28:38;4.00;;;2.70;;
79363;SDS011;68832;53.112;17.980;2023-05-20T00:31:05;3.30;;;2.00;;
79363;SDS011;68832;53.112;17.980;2023-05-20T00:33:32;6.20;;;3.00;;
79363;SDS011;68832;53.112;17.980;2023-05-20T00:36:01;8.10;;;3.40;;
79363;SDS011;68832;53.112;17.980;2023-05-20T00:38:28;5.70;;;3.50;;
79363;SDS011;68832;53.112;17.980;2023-05-20T00:40:55;5.60;;;2.80;;
79363;SDS011;68832;53.112;17.980;2023-05-20T00:43:22;7.20;;;3.30;;
79363;SDS011;68832;53.112;17.980;2023-05-20T00:45:51;3.20;;;2.50;;
79363;SDS011;68832;53.112;17.980;2023-05-20T00:48:19;7.30;;;2.70;;
79363;SDS011;68832;53.112;17.980;2023-05-20T00:50:48;4.70;;;3.50;;
79363;SDS011;68832;53.112;17.980;2023-05-20T00:53:16;3.70;;;2.30;;
79363;SDS011;68832;53.112;17.980;2023-05-20T00:55:46;8.60;;;4.10;;
79363;SDS011;68832;53.112;17.980;2023-05-20T00:58:13;3.70;;;2.50;;
79363;SDS011;68832;53.112;17.980;2023-05-20T01:00:41;6.10;;;3.70;;
79363;SDS011;68832;53.112;17.980;2023-05-20T01:03:08;3.70;;;3.10;;
79363;SDS011;68832;53.112;17.980;2023-05-20T01:05:35;4.50;;;3.10;;
79363;SDS011;68832;53.112;17.980;2023-05-20T01:08:02;4.80;;;3.50;;
79363;SDS011;68832;53.112;17.980;2023-05-20T01:10:29;7.30;;;3.30;;
79363;SDS011;68832;53.112;17.980;2023-05-20T01:12:57;4.50;;;3.30;;
79363;SDS011;68832;53.112;17.980;2023-05-20T01:15:26;3.90;;;3.10;;
79363;SDS011;68832;53.112;17.980;2023-05-20T01:17:54;7.60;;;3.00;;
79363;SDS011;68832;53.112;17.980;2023-05-20T01:20:28;6.80;;;4.10;;
79363;SDS011;68832;53.112;17.980;2023-05-20T01:22:57;7.80;;;3.00;;
79363;SDS011;68832;53.112;17.980;2023-05-20T01:25:24;4.00;;;3.00;;
79363;SDS011;68832;53.112;17.980;2023-05-20T01:27:53;5.60;;;3.10;;
79363;SDS011;68832;53.112;17.980;2023-05-20T01:30:20;7.70;;;3.00;;
79363;SDS011;68832;53.112;17.980;2023-05-20T01:32:57;6.30;;;3.70;;
79363;SDS011;68832;53.112;17.980;2023-05-20T01:35:25;7.80;;;3.50;;
79363;SDS011;68832;53.112;17.980;2023-05-20T01:37:52;5.20;;;3.60;;
79363;SDS011;68832;53.112;17.980;2023-05-20T01:40:21;5.80;;;3.90;;
79363;SDS011;68832;53.112;17.980;2023-05-20T01:42:49;4.20;;;3.40;;
79363;SDS011;68832;53.112;17.980;2023-05-20T01:45:18;6.70;;;3.70;;
79363;SDS011;68832;53.112;17.980;2023-05-20T01:47:46;4.70;;;3.60;;
79363;SDS011;68832;53.112;17.980;2023-05-20T01:50:13;3.60;;;2.60;;
79363;SDS011;68832;53.112;17.980;2023-05-20T01:52:40;7.20;;;3.50;;
79363;SDS011;68832;53.112;17.980;2023-05-20T01:55:07;6.20;;;2.80;;
79363;SDS011;68832;53.112;17.980;2023-05-20T01:57:34;4.10;;;2.60;;
79363;SDS011;68832;53.112;17.980;2023-05-20T02:00:01;4.10;;;3.30;;
79363;SDS011;68832;53.112;17.980;2023-05-20T02:02:39;4.90;;;2.00;;
79363;SDS011;68832;53.112;17.980;2023-05-20T02:05:09;6.30;;;2.60;;
79363;SDS011;68832;53.112;17.980;2023-05-20T02:07:36;6.50;;;3.80;;
79363;SDS011;68832;53.112;17.980;2023-05-20T02:10:03;5.20;;;3.60;;
79363;SDS011;68832;53.112;17.980;2023-05-20T02:12:30;5.30;;;2.60;;
79363;SDS011;68832;53.112;17.980;2023-05-20T02:14:57;7.60;;;2.50;;
79363;SDS011;68832;53.112;17.980;2023-05-20T02:17:24;8.10;;;2.40;;
79363;SDS011;68832;53.112;17.980;2023-05-20T02:19:52;3.90;;;2.10;;
79363;SDS011;68832;53.112;17.980;2023-05-20T02:22:19;3.70;;;2.40;;
79363;SDS011;68832;53.112;17.980;2023-05-20T02:24:46;3.80;;;2.50;;
79363;SDS011;68832;53.112;17.980;2023-05-20T02:27:15;5.80;;;2.70;;
79363;SDS011;68832;53.112;17.980;2023-05-20T02:29:42;6.00;;;3.10;;
79363;SDS011;68832;53.112;17.980;2023-05-20T02:32:11;3.60;;;2.90;;
79363;SDS011;68832;53.112;17.980;2023-05-20T02:34:38;6.00;;;3.00;;
79363;SDS011;68832;53.112;17.980;2023-05-20T02:37:05;4.50;;;3.90;;
79363;SDS011;68832;53.112;17.980;2023-05-20T02:39:32;4.30;;;2.10;;
79363;SDS011;68832;53.112;17.980;2023-05-20T02:41:59;4.60;;;2.60;;
79363;SDS011;68832;53.112;17.980;2023-05-20T02:44:26;3.40;;;2.00;;
79363;SDS011;68832;53.112;17.980;2023-05-20T02:46:54;5.00;;;3.50;;
79363;SDS011;68832;53.112;17.980;2023-05-20T02:49:21;5.50;;;2.70;;
79363;SDS011;68832;53.112;17.980;2023-05-20T02:51:50;10.50;;;2.10;;
79363;SDS011;68832;53.112;17.980;2023-05-20T02:54:17;3.60;;;2.60;;
79363;SDS011;68832;53.112;17.980;2023-05-20T02:56:44;4.80;;;3.10;;
79363;SDS011;68832;53.112;17.980;2023-05-20T02:59:10;4.80;;;3.00;;
79363;SDS011;68832;53.112;17.980;2023-05-20T03:01:38;4.00;;;2.80;;
79363;SDS011;68832;53.112;17.980;2023-05-20T03:04:06;6.50;;;4.10;;
79363;SDS011;68832;53.112;17.980;2023-05-20T03:06:33;8.00;;;3.40;;
79363;SDS011;68832;53.112;17.980;2023-05-20T03:09:00;3.50;;;2.40;;
79363;SDS011;68832;53.112;17.980;2023-05-20T03:11:29;5.20;;;2.60;;
79363;SDS011;68832;53.112;17.980;2023-05-20T03:13:56;4.10;;;3.10;;
79363;SDS011;68832;53.112;17.980;2023-05-20T03:16:23;5.00;;;2.90;;
79363;SDS011;68832;53.112;17.980;2023-05-20T03:18:50;7.30;;;2.90;;
79363;SDS011;68832;53.112;17.980;2023-05-20T03:21:17;5.20;;;3.10;;
79363;SDS011;68832;53.112;17.980;2023-05-20T03:23:44;6.20;;;3.10;;
79363;SDS011;68832;53.112;17.980;2023-05-20T03:26:11;6.00;;;4.30;;
79363;SDS011;68832;53.112;17.980;2023-05-20T03:28:39;6.10;;;2.40;;
79363;SDS011;68832;53.112;17.980;2023-05-20T03:31:06;5.60;;;2.90;;
79363;SDS011;68832;53.112;17.980;2023-05-20T03:33:34;5.00;;;2.90;;
79363;SDS011;68832;53.112;17.980;2023-05-20T03:36:01;4.90;;;3.30;;
79363;SDS011;68832;53.112;17.980;2023-05-20T03:38:29;4.90;;;3.20;;
79363;SDS011;68832;53.112;17.980;2023-05-20T03:40:56;4.80;;;4.30;;
79363;SDS011;68832;53.112;17.980;2023-05-20T03:43:22;4.70;;;2.30;;
79363;SDS011;68832;53.112;17.980;2023-05-20T03:45:50;5.00;;;2.70;;
79363;SDS011;68832;53.112;17.980;2023-05-20T03:48:17;8.90;;;4.10;;
79363;SDS011;68832;53.112;17.980;2023-05-20T03:50:45;10.10;;;3.40;;
79363;SDS011;68832;53.112;17.980;2023-05-20T03:53:12;5.10;;;2.90;;
79363;SDS011;68832;53.112;17.980;2023-05-20T03:55:40;5.10;;;3.70;;
79363;SDS011;68832;53.112;17.980;2023-05-20T03:58:08;4.90;;;2.80;;
79363;SDS011;68832;53.112;17.980;2023-05-20T04:00:35;6.80;;;2.80;;
79363;SDS011;68832;53.112;17.980;2023-05-20T04:03:02;5.10;;;2.90;;
79363;SDS011;68832;53.112;17.980;2023-05-20T04:05:30;5.50;;;2.30;;
79363;SDS011;68832;53.112;17.980;2023-05-20T04:07:57;4.20;;;2.60;;
79363;SDS011;68832;53.112;17.980;2023-05-20T04:10:25;6.80;;;3.00;;
79363;SDS011;68832;53.112;17.980;2023-05-20T04:12:51;4.10;;;2.70;;
79363;SDS011;68832;53.112;17.980;2023-05-20T04:15:20;3.80;;;2.40;;
79363;SDS011;68832;53.112;17.980;2023-05-20T04:17:54;4.50;;;2.50;;
79363;SDS011;68832;53.112;17.980;2023-05-20T04:20:21;4.90;;;2.90;;
79363;SDS011;68832;53.112;17.980;2023-05-20T04:25:18;7.30;;;4.30;;
79363;SDS011;68832;53.112;17.980;2023-05-20T04:27:46;5.90;;;4.00;;
79363;SDS011;68832;53.112;17.980;2023-05-20T04:30:14;4.10;;;2.50;;
79363;SDS011;68832;53.112;17.980;2023-05-20T04:32:43;4.80;;;3.30;;
79363;SDS011;68832;53.112;17.980;2023-05-20T04:35:10;3.50;;;2.80;;
79363;SDS011;68832;53.112;17.980;2023-05-20T04:37:41;3.90;;;2.30;;
79363;SDS011;68832;53.112;17.980;2023-05-20T04:40:13;5.50;;;5.00;;
79363;SDS011;68832;53.112;17.980;2023-05-20T04:42:41;4.60;;;2.50;;
79363;SDS011;68832;53.112;17.980;2023-05-20T04:45:10;4.10;;;3.10;;
79363;SDS011;68832;53.112;17.980;2023-05-20T04:47:38;5.70;;;2.30;;
79363;SDS011;68832;53.112;17.980;2023-05-20T04:50:05;4.90;;;2.60;;
79363;SDS011;68832;53.112;17.980;2023-05-20T04:52:39;5.30;;;1.70;;
79363;SDS011;68832;53.112;17.980;2023-05-20T04:55:08;4.10;;;2.60;;
79363;SDS011;68832;53.112;17.980;2023-05-20T04:57:36;7.20;;;2.40;;
79363;SDS011;68832;53.112;17.980;2023-05-20T05:00:06;6.50;;;2.80;;
79363;SDS011;68832;53.112;17.980;2023-05-20T05:02:35;3.90;;;2.40;;
79363;SDS011;68832;53.112;17.980;2023-05-20T05:05:03;5.60;;;3.60;;
79363;SDS011;68832;53.112;17.980;2023-05-20T05:07:31;3.20;;;2.20;;
79363;SDS011;68832;53.112;17.980;2023-05-20T05:09:58;5.70;;;2.70;;
79363;SDS011;68832;53.112;17.980;2023-05-20T05:12:24;4.90;;;2.30;;
79363;SDS011;68832;53.112;17.980;2023-05-20T05:14:52;7.90;;;2.30;;
79363;SDS011;68832;53.112;17.980;2023-05-20T05:17:18;6.70;;;1.70;;
79363;SDS011;68832;53.112;17.980;2023-05-20T05:19:46;4.40;;;2.90;;
79363;SDS011;68832;53.112;17.980;2023-05-20T05:22:13;3.90;;;1.90;;
79363;SDS011;68832;53.112;17.980;2023-05-20T05:24:40;2.70;;;2.00;;
79363;SDS011;68832;53.112;17.980;2023-05-20T05:27:08;4.30;;;3.10;;
79363;SDS011;68832;53.112;17.980;2023-05-20T05:29:34;6.00;;;4.10;;
79363;SDS011;68832;53.112;17.980;2023-05-20T05:32:02;4.40;;;2.00;;
79363;SDS011;68832;53.112;17.980;2023-05-20T05:34:29;4.10;;;1.90;;
79363;SDS011;68832;53.112;17.980;2023-05-20T05:36:56;5.90;;;2.10;;
79363;SDS011;68832;53.112;17.980;2023-05-20T05:39:23;5.20;;;2.20;;
79363;SDS011;68832;53.112;17.980;2023-05-20T05:41:50;4.30;;;2.40;;
79363;SDS011;68832;53.112;17.980;2023-05-20T05:46:46;6.00;;;2.70;;
79363;SDS011;68832;53.112;17.980;2023-05-20T05:49:13;5.00;;;2.50;;
79363;SDS011;68832;53.112;17.980;2023-05-20T05:51:40;4.60;;;2.70;;
79363;SDS011;68832;53.112;17.980;2023-05-20T05:54:07;4.30;;;2.90;;
79363;SDS011;68832;53.112;17.980;2023-05-20T05:56:34;5.40;;;2.10;;
79363;SDS011;68832;53.112;17.980;2023-05-20T05:59:01;3.50;;;2.30;;
79363;SDS011;68832;53.112;17.980;2023-05-20T06:01:28;6.20;;;2.90;;
79363;SDS011;68832;53.112;17.980;2023-05-20T06:03:55;3.30;;;1.70;;
79363;SDS011;68832;53.112;17.980;2023-05-20T06:06:22;5.10;;;2.10;;
79363;SDS011;68832;53.112;17.980;2023-05-20T06:08:49;3.70;;;2.60;;
79363;SDS011;68832;53.112;17.980;2023-05-20T06:11:16;3.10;;;1.90;;
79363;SDS011;68832;53.112;17.980;2023-05-20T06:13:46;6.00;;;2.20;;
79363;SDS011;68832;53.112;17.980;2023-05-20T06:16:13;4.70;;;1.80;;
79363;SDS011;68832;53.112;17.980;2023-05-20T06:18:41;4.20;;;2.00;;
79363;SDS011;68832;53.112;17.980;2023-05-20T06:21:08;4.60;;;2.00;;
79363;SDS011;68832;53.112;17.980;2023-05-20T06:23:36;6.20;;;2.50;;
79363;SDS011;68832;53.112;17.980;2023-05-20T06:26:05;4.20;;;2.60;;
79363;SDS011;68832;53.112;17.980;2023-05-20T06:28:32;5.60;;;2.40;;
79363;SDS011;68832;53.112;17.980;2023-05-20T06:30:59;2.80;;;1.60;;
79363;SDS011;68832;53.112;17.980;2023-05-20T06:33:27;3.60;;;2.20;;
79363;SDS011;68832;53.112;17.980;2023-05-20T06:35:58;4.70;;;1.80;;
79363;SDS011;68832;53.112;17.980;2023-05-20T06:38:27;5.10;;;2.60;;
79363;SDS011;68832;53.112;17.980;2023-05-20T06:40:55;5.10;;;4.30;;
79363;SDS011;68832;53.112;17.980;2023-05-20T06:43:22;6.30;;;2.70;;
79363;SDS011;68832;53.112;17.980;2023-05-20T06:46:12;3.60;;;1.80;;
79363;SDS011;68832;53.112;17.980;2023-05-20T06:48:45;3.40;;;2.20;;
79363;SDS011;68832;53.112;17.980;2023-05-20T06:51:12;6.40;;;2.60;;
79363;SDS011;68832;53.112;17.980;2023-05-20T06:53:40;7.20;;;4.20;;
79363;SDS011;68832;53.112;17.980;2023-05-20T06:56:07;6.30;;;2.80;;
79363;SDS011;68832;53.112;17.980;2023-05-20T06:58:34;6.20;;;2.40;;
79363;SDS011;68832;53.112;17.980;2023-05-20T07:01:01;6.20;;;3.00;;
79363;SDS011;68832;53.112;17.980;2023-05-20T07:03:28;2.50;;;1.50;;
79363;SDS011;68832;53.112;17.980;2023-05-20T07:05:54;3.00;;;2.20;;
79363;SDS011;68832;53.112;17.980;2023-05-20T07:10:50;4.60;;;2.80;;
79363;SDS011;68832;53.112;17.980;2023-05-20T07:13:20;5.10;;;2.20;;
79363;SDS011;68832;53.112;17.980;2023-05-20T07:15:50;6.50;;;2.00;;
79363;SDS011;68832;53.112;17.980;2023-05-20T07:18:18;4.70;;;2.40;;
79363;SDS011;68832;53.112;17.980;2023-05-20T07:20:51;5.60;;;2.40;;
79363;SDS011;68832;53.112;17.980;2023-05-20T07:23:30;4.30;;;2.40;;
79363;SDS011;68832;53.112;17.980;2023-05-20T07:25:58;6.90;;;2.70;;
79363;SDS011;68832;53.112;17.980;2023-05-20T07:28:24;4.90;;;3.40;;
79363;SDS011;68832;53.112;17.980;2023-05-20T07:30:52;4.00;;;2.70;;
79363;SDS011;68832;53.112;17.980;2023-05-20T07:33:22;6.20;;;4.60;;
79363;SDS011;68832;53.112;17.980;2023-05-20T07:35:49;7.00;;;2.90;;
79363;SDS011;68832;53.112;17.980;2023-05-20T07:38:16;6.30;;;2.80;;
79363;SDS011;68832;53.112;17.980;2023-05-20T07:40:45;6.30;;;3.10;;
79363;SDS011;68832;53.112;17.980;2023-05-20T07:43:13;5.20;;;2.80;;
79363;SDS011;68832;53.112;17.980;2023-05-20T07:45:41;4.60;;;1.60;;
79363;SDS011;68832;53.112;17.980;2023-05-20T07:48:08;4.90;;;2.40;;
79363;SDS011;68832;53.112;17.980;2023-05-20T07:50:36;5.00;;;2.80;;
79363;SDS011;68832;53.112;17.980;2023-05-20T07:53:04;4.30;;;3.00;;
79363;SDS011;68832;53.112;17.980;2023-05-20T07:55:33;4.80;;;2.20;;
79363;SDS011;68832;53.112;17.980;2023-05-20T07:58:03;5.30;;;2.70;;
79363;SDS011;68832;53.112;17.980;2023-05-20T08:00:32;4.70;;;2.50;;
79363;SDS011;68832;53.112;17.980;2023-05-20T08:03:01;5.30;;;2.90;;
79363;SDS011;68832;53.112;17.980;2023-05-20T08:08:05;4.20;;;2.30;;
79363;SDS011;68832;53.112;17.980;2023-05-20T08:10:42;3.10;;;1.70;;
79363;SDS011;68832;53.112;17.980;2023-05-20T08:13:09;6.20;;;2.10;;
79363;SDS011;68832;53.112;17.980;2023-05-20T08:15:37;5.20;;;2.10;;
79363;SDS011;68832;53.112;17.980;2023-05-20T08:18:04;5.30;;;2.60;;
79363;SDS011;68832;53.112;17.980;2023-05-20T08:20:31;9.30;;;2.60;;
79363;SDS011;68832;53.112;17.980;2023-05-20T08:22:58;7.30;;;2.20;;
79363;SDS011;68832;53.112;17.980;2023-05-20T08:25:25;5.80;;;2.80;;
79363;SDS011;68832;53.112;17.980;2023-05-20T08:27:53;3.60;;;2.10;;
79363;SDS011;68832;53.112;17.980;2023-05-20T08:30:20;4.40;;;2.80;;
79363;SDS011;68832;53.112;17.980;2023-05-20T08:32:47;6.20;;;2.40;;
79363;SDS011;68832;53.112;17.980;2023-05-20T08:35:14;4.00;;;2.30;;
79363;SDS011;68832;53.112;17.980;2023-05-20T08:37:42;6.10;;;2.50;;
79363;SDS011;68832;53.112;17.980;2023-05-20T08:40:09;7.00;;;2.80;;
79363;SDS011;68832;53.112;17.980;2023-05-20T08:42:43;4.30;;;2.30;;
79363;SDS011;68832;53.112;17.980;2023-05-20T08:45:12;3.80;;;1.90;;
79363;SDS011;68832;53.112;17.980;2023-05-20T08:47:43;6.00;;;2.20;;
79363;SDS011;68832;53.112;17.980;2023-05-20T08:50:12;7.80;;;1.90;;
79363;SDS011;68832;53.112;17.980;2023-05-20T08:55:13;5.20;;;2.10;;
79363;SDS011;68832;53.112;17.980;2023-05-20T08:57:42;4.30;;;2.00;;
79363;SDS011;68832;53.112;17.980;2023-05-20T09:00:12;6.10;;;2.70;;
79363;SDS011;68832;53.112;17.980;2023-05-20T09:02:45;4.40;;;2.40;;
79363;SDS011;68832;53.112;17.980;2023-05-20T09:05:13;5.70;;;3.00;;
79363;SDS011;68832;53.112;17.980;2023-05-20T09:07:40;4.40;;;2.30;;
79363;SDS011;68832;53.112;17.980;2023-05-20T09:12:36;5.10;;;2.90;;
79363;SDS011;68832;53.112;17.980;2023-05-20T09:15:04;5.70;;;2.90;;
79363;SDS011;68832;53.112;17.980;2023-05-20T09:17:34;4.60;;;2.50;;
79363;SDS011;68832;53.112;17.980;2023-05-20T09:20:08;7.50;;;2.00;;
79363;SDS011;68832;53.112;17.980;2023-05-20T09:25:04;3.70;;;1.60;;
79363;SDS011;68832;53.112;17.980;2023-05-20T09:27:32;7.00;;;3.10;;
79363;SDS011;68832;53.112;17.980;2023-05-20T09:29:59;5.00;;;2.30;;
79363;SDS011;68832;53.112;17.980;2023-05-20T09:32:26;6.50;;;3.70;;
79363;SDS011;68832;53.112;17.980;2023-05-20T09:34:54;6.30;;;3.40;;
79363;SDS011;68832;53.112;17.980;2023-05-20T09:37:21;4.70;;;2.30;;
79363;SDS011;68832;53.112;17.980;2023-05-20T09:39:59;5.20;;;2.20;;
79363;SDS011;68832;53.112;17.980;2023-05-20T09:45:07;4.80;;;1.80;;
79363;SDS011;68832;53.112;17.980;2023-05-20T09:47:36;2.90;;;2.00;;
79363;SDS011;68832;53.112;17.980;2023-05-20T09:50:05;5.90;;;2.50;;
79363;SDS011;68832;53.112;17.980;2023-05-20T09:52:34;6.30;;;1.90;;
79363;SDS011;68832;53.112;17.980;2023-05-20T09:55:02;5.50;;;2.20;;
79363;SDS011;68832;53.112;17.980;2023-05-20T09:57:34;3.60;;;2.50;;
79363;SDS011;68832;53.112;17.980;2023-05-20T10:02:46;4.30;;;2.30;;
79363;SDS011;68832;53.112;17.980;2023-05-20T10:08:26;5.00;;;2.90;;
79363;SDS011;68832;53.112;17.980;2023-05-20T10:11:02;5.60;;;2.50;;
79363;SDS011;68832;53.112;17.980;2023-05-20T10:13:49;5.20;;;3.20;;
79363;SDS011;68832;53.112;17.980;2023-05-20T10:22:02;6.20;;;3.20;;
79363;SDS011;68832;53.112;17.980;2023-05-20T10:24:37;5.60;;;3.10;;
79363;SDS011;68832;53.112;17.980;2023-05-20T10:27:13;6.90;;;2.50;;
79363;SDS011;68832;53.112;17.980;2023-05-20T10:29:53;5.50;;;2.10;;
79363;SDS011;68832;53.112;17.980;2023-05-20T10:32:28;5.60;;;2.70;;
79363;SDS011;68832;53.112;17.980;2023-05-20T10:35:00;5.20;;;3.40;;
79363;SDS011;68832;53.112;17.980;2023-05-20T10:40:12;3.60;;;2.50;;
79363;SDS011;68832;53.112;17.980;2023-05-20T10:42:40;4.80;;;3.10;;
79363;SDS011;68832;53.112;17.980;2023-05-20T10:45:08;5.20;;;2.20;;
79363;SDS011;68832;53.112;17.980;2023-05-20T10:47:36;5.00;;;2.30;;
79363;SDS011;68832;53.112;17.980;2023-05-20T10:50:07;4.20;;;2.50;;
79363;SDS011;68832;53.112;17.980;2023-05-20T10:52:51;4.00;;;2.50;;
79363;SDS011;68832;53.112;17.980;2023-05-20T10:55:18;5.10;;;1.90;;
79363;SDS011;68832;53.112;17.980;2023-05-20T10:57:47;5.40;;;2.70;;
79363;SDS011;68832;53.112;17.980;2023-05-20T11:00:14;4.80;;;2.50;;
79363;SDS011;68832;53.112;17.980;2023-05-20T11:02:42;6.00;;;2.70;;
79363;SDS011;68832;53.112;17.980;2023-05-20T11:05:10;3.90;;;2.20;;
79363;SDS011;68832;53.112;17.980;2023-05-20T11:07:37;6.00;;;3.40;;
79363;SDS011;68832;53.112;17.980;2023-05-20T11:10:06;5.40;;;3.80;;
79363;SDS011;68832;53.112;17.980;2023-05-20T11:12:35;4.40;;;3.40;;
79363;SDS011;68832;53.112;17.980;2023-05-20T11:15:02;6.60;;;2.80;;
79363;SDS011;68832;53.112;17.980;2023-05-20T11:17:29;5.90;;;3.50;;
79363;SDS011;68832;53.112;17.980;2023-05-20T11:19:56;9.20;;;4.20;;
79363;SDS011;68832;53.112;17.980;2023-05-20T11:22:26;5.60;;;2.90;;
79363;SDS011;68832;53.112;17.980;2023-05-20T11:24:53;5.00;;;3.20;;
79363;SDS011;68832;53.112;17.980;2023-05-20T11:27:20;4.50;;;2.70;;
79363;SDS011;68832;53.112;17.980;2023-05-20T11:29:48;5.10;;;3.60;;
79363;SDS011;68832;53.112;17.980;2023-05-20T11:32:18;5.40;;;2.70;;
79363;SDS011;68832;53.112;17.980;2023-05-20T11:34:49;4.50;;;2.70;;
79363;SDS011;68832;53.112;17.980;2023-05-20T11:37:17;5.50;;;2.30;;
79363;SDS011;68832;53.112;17.980;2023-05-20T11:39:45;5.60;;;2.90;;
79363;SDS011;68832;53.112;17.980;2023-05-20T11:42:13;9.30;;;5.40;;
79363;SDS011;68832;53.112;17.980;2023-05-20T11:44:42;8.40;;;4.30;;
79363;SDS011;68832;53.112;17.980;2023-05-20T11:47:10;8.70;;;4.70;;
79363;SDS011;68832;53.112;17.980;2023-05-20T11:49:40;7.90;;;3.40;;
79363;SDS011;68832;53.112;17.980;2023-05-20T11:52:08;5.90;;;3.70;;
79363;SDS011;68832;53.112;17.980;2023-05-20T11:54:36;4.90;;;3.30;;
79363;SDS011;68832;53.112;17.980;2023-05-20T11:57:03;5.50;;;3.60;;
79363;SDS011;68832;53.112;17.980;2023-05-20T11:59:30;7.60;;;4.60;;
79363;SDS011;68832;53.112;17.980;2023-05-20T12:01:58;5.60;;;3.40;;
79363;SDS011;68832;53.112;17.980;2023-05-20T12:04:24;6.60;;;3.90;;
79363;SDS011;68832;53.112;17.980;2023-05-20T12:06:51;6.70;;;4.30;;
79363;SDS011;68832;53.112;17.980;2023-05-20T12:09:18;7.70;;;4.90;;
79363;SDS011;68832;53.112;17.980;2023-05-20T12:11:45;8.90;;;4.40;;
79363;SDS011;68832;53.112;17.980;2023-05-20T12:14:12;7.80;;;4.90;;
79363;SDS011;68832;53.112;17.980;2023-05-20T12:16:39;7.70;;;4.40;;
79363;SDS011;68832;53.112;17.980;2023-05-20T12:19:06;7.00;;;4.40;;
79363;SDS011;68832;53.112;17.980;2023-05-20T12:24:02;8.00;;;4.60;;
79363;SDS011;68832;53.112;17.980;2023-05-20T12:26:32;8.40;;;4.50;;
79363;SDS011;68832;53.112;17.980;2023-05-20T12:29:00;5.60;;;3.90;;
79363;SDS011;68832;53.112;17.980;2023-05-20T12:31:27;6.00;;;4.00;;
79363;SDS011;68832;53.112;17.980;2023-05-20T12:33:54;11.40;;;4.60;;
79363;SDS011;68832;53.112;17.980;2023-05-20T12:36:21;9.00;;;4.80;;
79363;SDS011;68832;53.112;17.980;2023-05-20T12:38:48;6.30;;;4.40;;
79363;SDS011;68832;53.112;17.980;2023-05-20T12:41:14;11.00;;;5.40;;
79363;SDS011;68832;53.112;17.980;2023-05-20T12:43:41;6.80;;;3.70;;
79363;SDS011;68832;53.112;17.980;2023-05-20T12:46:09;8.40;;;5.70;;
79363;SDS011;68832;53.112;17.980;2023-05-20T12:48:36;8.00;;;5.50;;
79363;SDS011;68832;53.112;17.980;2023-05-20T12:51:03;6.70;;;4.50;;
79363;SDS011;68832;53.112;17.980;2023-05-20T12:53:30;7.60;;;5.50;;
79363;SDS011;68832;53.112;17.980;2023-05-20T12:55:57;7.30;;;4.40;;
79363;SDS011;68832;53.112;17.980;2023-05-20T12:58:24;7.90;;;5.10;;
79363;SDS011;68832;53.112;17.980;2023-05-20T13:00:51;9.90;;;5.40;;
79363;SDS011;68832;53.112;17.980;2023-05-20T13:03:18;8.30;;;5.00;;
79363;SDS011;68832;53.112;17.980;2023-05-20T13:05:45;6.10;;;4.30;;
79363;SDS011;68832;53.112;17.980;2023-05-20T13:08:12;6.70;;;4.70;;
79363;SDS011;68832;53.112;17.980;2023-05-20T13:13:06;7.60;;;4.90;;
79363;SDS011;68832;53.112;17.980;2023-05-20T13:15:33;7.30;;;4.30;;
79363;SDS011;68832;53.112;17.980;2023-05-20T13:18:00;7.50;;;4.90;;
79363;SDS011;68832;53.112;17.980;2023-05-20T13:20:28;8.60;;;4.50;;
79363;SDS011;68832;53.112;17.980;2023-05-20T13:22:56;9.90;;;6.60;;
79363;SDS011;68832;53.112;17.980;2023-05-20T13:25:23;9.30;;;5.00;;
79363;SDS011;68832;53.112;17.980;2023-05-20T13:27:50;7.40;;;4.90;;
79363;SDS011;68832;53.112;17.980;2023-05-20T13:30:17;8.60;;;4.60;;
79363;SDS011;68832;53.112;17.980;2023-05-20T13:32:44;9.70;;;4.50;;
79363;SDS011;68832;53.112;17.980;2023-05-20T13:35:11;9.70;;;5.50;;
79363;SDS011;68832;53.112;17.980;2023-05-20T13:37:38;6.30;;;4.80;;
79363;SDS011;68832;53.112;17.980;2023-05-20T13:40:05;6.30;;;4.60;;
79363;SDS011;68832;53.112;17.980;2023-05-20T13:42:33;8.80;;;5.20;;
79363;SDS011;68832;53.112;17.980;2023-05-20T13:45:00;9.90;;;4.10;;
79363;SDS011;68832;53.112;17.980;2023-05-20T13:47:27;7.80;;;4.90;;
79363;SDS011;68832;53.112;17.980;2023-05-20T13:49:54;6.30;;;3.70;;
79363;SDS011;68832;53.112;17.980;2023-05-20T13:52:22;6.30;;;4.60;;
79363;SDS011;68832;53.112;17.980;2023-05-20T13:54:49;9.80;;;4.60;;
79363;SDS011;68832;53.112;17.980;2023-05-20T13:57:16;7.70;;;4.20;;
79363;SDS011;68832;53.112;17.980;2023-05-20T13:59:43;8.90;;;4.80;;
79363;SDS011;68832;53.112;17.980;2023-05-20T14:02:10;8.30;;;4.60;;
79363;SDS011;68832;53.112;17.980;2023-05-20T14:04:37;6.10;;;3.90;;
79363;SDS011;68832;53.112;17.980;2023-05-20T14:07:04;6.90;;;4.30;;
79363;SDS011;68832;53.112;17.980;2023-05-20T14:09:31;6.70;;;3.70;;
79363;SDS011;68832;53.112;17.980;2023-05-20T14:11:59;6.90;;;4.50;;
79363;SDS011;68832;53.112;17.980;2023-05-20T14:14:26;8.70;;;5.70;;
79363;SDS011;68832;53.112;17.980;2023-05-20T14:16:55;6.70;;;4.80;;
79363;SDS011;68832;53.112;17.980;2023-05-20T14:19:22;8.90;;;5.50;;
79363;SDS011;68832;53.112;17.980;2023-05-20T14:21:49;7.20;;;4.40;;
79363;SDS011;68832;53.112;17.980;2023-05-20T14:24:16;5.60;;;3.40;;
79363;SDS011;68832;53.112;17.980;2023-05-20T14:26:43;8.60;;;5.10;;
79363;SDS011;68832;53.112;17.980;2023-05-20T14:29:10;6.10;;;4.70;;
79363;SDS011;68832;53.112;17.980;2023-05-20T14:31:37;9.20;;;6.30;;
79363;SDS011;68832;53.112;17.980;2023-05-20T14:34:04;6.70;;;4.70;;
79363;SDS011;68832;53.112;17.980;2023-05-20T14:36:31;7.10;;;5.00;;
79363;SDS011;68832;53.112;17.980;2023-05-20T14:38:58;6.10;;;4.70;;
79363;SDS011;68832;53.112;17.980;2023-05-20T14:41:25;7.90;;;5.40;;
79363;SDS011;68832;53.112;17.980;2023-05-20T14:43:52;8.90;;;4.90;;
79363;SDS011;68832;53.112;17.980;2023-05-20T14:46:19;9.20;;;5.50;;
79363;SDS011;68832;53.112;17.980;2023-05-20T14:48:46;10.60;;;5.90;;
79363;SDS011;68832;53.112;17.980;2023-05-20T14:51:12;10.20;;;6.30;;
79363;SDS011;68832;53.112;17.980;2023-05-20T14:53:40;8.70;;;5.50;;
79363;SDS011;68832;53.112;17.980;2023-05-20T14:56:07;8.80;;;6.70;;
79363;SDS011;68832;53.112;17.980;2023-05-20T14:58:34;7.40;;;5.70;;
79363;SDS011;68832;53.112;17.980;2023-05-20T15:01:01;8.40;;;5.10;;
79363;SDS011;68832;53.112;17.980;2023-05-20T15:03:28;10.90;;;6.40;;
79363;SDS011;68832;53.112;17.980;2023-05-20T15:05:56;12.20;;;7.30;;
79363;SDS011;68832;53.112;17.980;2023-05-20T15:08:23;7.30;;;4.80;;
79363;SDS011;68832;53.112;17.980;2023-05-20T15:10:50;11.70;;;7.20;;
79363;SDS011;68832;53.112;17.980;2023-05-20T15:13:16;11.10;;;6.50;;
79363;SDS011;68832;53.112;17.980;2023-05-20T15:15:43;9.10;;;6.10;;
79363;SDS011;68832;53.112;17.980;2023-05-20T15:18:11;15.70;;;6.90;;